Time;durP1;ratioP1;P1;durP2;ratioP2;P2;SDS_P1;SDS_P2;PMS_P1;PMS_P2;Temp;Humidity;BMP_temperature;BMP_pressure;BME280_temperature;BME280_humidity;BME280_pressure;Samples;Min_cycle;Max_cycle;Signal;HPM_P1;HPM_P2
2022/08/24 00:02:54;;;;;;;4.38;3.50;;;;;;;24.01;56.18;100169.72;20719180;28;20049;-72
2022/08/24 00:12:54;;;;;;;4.43;3.50;;;;;;;23.96;55.93;100162.19;20735175;28;20041;-71
2022/08/24 00:22:57;;;;;;;3.67;3.38;;;;;;;23.95;56.29;100163.19;20735833;28;20065;-73
2022/08/24 00:32:57;;;;;;;4.10;3.72;;;;;;;23.92;56.28;100166.94;20720968;28;20041;-72
2022/08/24 00:43:02;;;;;;;6.38;3.92;;;;;;;23.90;56.28;100170.69;20736158;28;20509;-73
2022/08/24 00:53:08;;;;;;;3.83;3.40;;;;;;;23.88;56.35;100173.47;20733384;28;20034;-72
2022/08/24 01:03:10;;;;;;;4.25;3.50;;;;;;;23.87;56.36;100168.34;20718914;28;20041;-72
2022/08/24 01:13:13;;;;;;;3.90;3.47;;;;;;;23.85;56.49;100167.63;20739625;28;20037;-73
2022/08/24 01:23:38;;;;;;;3.72;3.42;;;;;;;23.83;56.51;100176.53;20727026;28;20408;-73
2022/08/24 01:33:38;;;;;;;5.95;3.45;;;;;;;23.81;56.53;100189.09;20727667;28;20041;-72
2022/08/24 01:43:39;;;;;;;3.90;3.47;;;;;;;23.79;56.45;100193.66;20718051;28;20056;-72
2022/08/24 01:53:40;;;;;;;3.80;3.50;;;;;;;23.76;56.37;100195.75;20723007;28;20497;-73
2022/08/24 02:03:40;;;;;;;3.88;3.50;;;;;;;23.77;56.55;100205.38;20672268;28;20046;-72
2022/08/24 02:13:41;;;;;;;4.72;3.75;;;;;;;23.73;56.31;100190.72;20714049;28;20041;-72
2022/08/24 02:23:42;;;;;;;3.88;3.47;;;;;;;23.70;56.60;100207.72;20725282;28;20062;-70
2022/08/24 02:33:43;;;;;;;5.93;3.40;;;;;;;23.67;56.64;100206.19;20721880;28;20037;-71
2022/08/24 02:43:43;;;;;;;5.65;3.80;;;;;;;23.65;56.56;100197.56;20705656;28;20055;-72
2022/08/24 02:53:44;;;;;;;3.75;3.45;;;;;;;23.63;56.65;100204.81;20710650;28;20488;-72
2022/08/24 03:03:45;;;;;;;4.18;3.50;;;;;;;23.60;56.70;100202.44;20713579;28;20458;-72
2022/08/24 03:13:45;;;;;;;4.10;3.70;;;;;;;23.58;56.82;100204.41;20722934;28;20572;-72
2022/08/24 03:23:46;;;;;;;3.67;3.38;;;;;;;23.58;56.98;100208.84;20709912;28;20038;-73
2022/08/24 03:33:49;;;;;;;5.00;3.92;;;;;;;23.57;56.84;100207.16;20715444;28;20049;-72
2022/08/24 03:43:49;;;;;;;10.18;5.82;;;;;;;23.56;56.99;100216.06;20723001;28;20035;-72
2022/08/24 03:53:52;;;;;;;5.50;4.90;;;;;;;23.54;56.86;100224.13;20731235;28;20056;-72
2022/08/24 04:03:52;;;;;;;;;;;;;;;23.53;56.87;100216.34;20695312;28;20723;-72
2022/08/24 04:13:55;;;;;;;4.85;3.58;;;;;;;23.48;57.20;100209.66;20685960;28;19921;-71
2022/08/24 04:23:57;;;;;;;4.80;4.40;;;;;;;23.49;57.19;100210.50;20719514;28;20050;-73
2022/08/24 04:33:57;;;;;;;6.60;4.10;;;;;;;23.48;57.20;100222.03;20647114;28;20037;-73
2022/08/24 04:43:59;;;;;;;8.05;4.20;;;;;;;23.46;57.33;100221.34;20631156;28;20064;-73
2022/08/24 04:53:59;;;;;;;7.73;4.13;;;;;;;23.43;57.53;100206.59;20605281;28;20037;-72
2022/08/24 05:04:00;;;;;;;5.50;3.83;;;;;;;23.48;57.49;100217.59;20610102;28;20177;-72
2022/08/24 05:14:05;;;;;;;10.40;5.10;;;;;;;23.48;57.75;100214.13;20627844;28;20046;-71
2022/08/24 05:24:06;;;;;;;5.90;4.68;;;;;;;23.43;57.94;100213.69;20679638;28;20078;-72
2022/08/24 05:34:06;;;;;;;8.63;4.82;;;;;;;23.38;58.32;100208.81;20614746;28;20046;-71
2022/08/24 05:44:07;;;;;;;8.35;5.13;;;;;;;23.42;58.33;100220.78;20655546;28;20054;-71
2022/08/24 05:54:10;;;;;;;4.93;3.80;;;;;;;23.45;58.23;100212.59;20634030;28;20046;-72
2022/08/24 06:04:11;;;;;;;4.45;4.05;;;;;;;23.50;58.52;100217.47;20657792;28;20054;-72
2022/08/24 06:14:14;;;;;;;9.00;4.20;;;;;;;23.52;58.24;100202.28;20636627;28;20034;-73
2022/08/24 06:24:15;;;;;;;5.60;4.40;;;;;;;23.58;58.51;100220.25;20655380;28;20054;-73
2022/08/24 06:34:17;;;;;;;7.68;4.53;;;;;;;23.64;58.54;100225.00;20685866;28;20137;-72
2022/08/24 06:44:18;;;;;;;6.60;4.00;;;;;;;23.75;59.38;100241.66;20664438;28;20050;-73
2022/08/24 06:54:21;;;;;;;9.07;4.75;;;;;;;23.79;59.63;100245.69;20682804;28;20084;-73
2022/08/24 07:04:23;;;;;;;7.30;4.45;;;;;;;23.84;59.61;100251.41;20687568;28;20054;-73
2022/08/24 07:14:24;;;;;;;10.80;5.10;;;;;;;23.90;59.88;100263.22;20703053;28;20044;-73
2022/08/24 07:24:24;;;;;;;7.00;4.38;;;;;;;23.93;59.74;100278.88;20672228;28;20504;-72
2022/08/24 07:34:25;;;;;;;17.90;4.38;;;;;;;23.98;59.81;100276.63;20615300;28;20498;-72
2022/08/24 07:44:26;;;;;;;6.28;5.20;;;;;;;24.04;60.07;100275.25;20624526;28;20505;-73
2022/08/24 07:54:27;;;;;;;8.75;4.95;;;;;;;24.16;60.27;100286.47;20719135;28;20038;-72
2022/08/24 08:04:30;;;;;;;9.73;4.77;;;;;;;24.28;60.21;100295.97;20702531;28;20046;-71
2022/08/24 08:14:31;;;;;;;7.78;4.07;;;;;;;24.39;59.70;100287.84;20688430;28;20050;-72
2022/08/24 08:24:31;;;;;;;8.43;4.23;;;;;;;24.49;59.48;100300.25;20647252;28;20056;-72
2022/08/24 08:34:32;;;;;;;9.15;3.72;;;;;;;24.59;59.00;100298.41;20662139;28;20160;-71
2022/08/24 08:44:54;;;;;;;4.50;3.20;;;;;;;24.66;58.59;100304.81;20690294;28;20045;-72
2022/08/24 08:55:44;;;;;;;9.48;3.67;;;;;;;24.75;58.10;100301.28;20727042;28;20050;-73
2022/08/24 09:05:46;;;;;;;8.40;3.65;;;;;;;24.81;57.66;100297.25;20655648;28;20059;-72
2022/08/24 09:16:09;;;;;;;48.10;5.85;;;;;;;24.91;57.14;100298.06;20737130;28;20046;-73
2022/08/24 09:26:19;;;;;;;25.02;4.78;;;;;;;24.99;57.63;100291.19;20725288;28;20050;-74
2022/08/24 09:36:52;;;;;;;32.58;6.75;;;;;;;25.22;57.71;100281.03;20693454;28;20129;-74
2022/08/24 09:47:08;;;;;;;20.83;5.03;;;;;;;25.40;56.84;100281.94;20710050;28;20077;-72
2022/08/24 09:57:38;;;;;;;14.70;4.40;;;;;;;25.44;56.17;100271.00;20730806;28;20054;-72
2022/08/24 10:08:17;;;;;;;10.73;4.87;;;;;;;25.39;56.49;100274.13;20733913;28;20140;-72
2022/08/24 10:18:26;;;;;;;23.98;8.75;;;;;;;25.47;56.83;100263.59;20719308;28;20045;-73
2022/08/24 10:28:41;;;;;;;21.70;8.27;;;;;;;25.49;57.07;100268.75;20696973;28;20136;-75
2022/08/24 10:49:33;;;;;;;15.25;8.50;;;;;;;25.52;55.73;100276.41;20740781;28;20050;-75
2022/08/24 10:59:53;;;;;;;20.15;10.05;;;;;;;25.53;56.22;100273.59;20722006;28;20050;-76
2022/08/24 11:09:57;;;;;;;13.65;9.18;;;;;;;25.56;55.86;100275.09;20683985;28;20047;-77
2022/08/24 11:19:58;;;;;;;30.13;10.02;;;;;;;25.57;56.47;100279.44;20627573;28;20093;-75
2022/08/24 11:30:08;;;;;;;15.53;8.90;;;;;;;25.56;56.12;100285.72;20605549;28;20100;-77
2022/08/24 11:40:10;;;;;;;22.63;9.07;;;;;;;25.60;55.80;100296.84;20614828;28;20481;-76
2022/08/24 11:50:16;;;;;;;19.85;8.60;;;;;;;25.65;55.98;100292.78;20645227;28;20042;-76
2022/08/24 12:00:21;;;;;;;15.18;7.47;;;;;;;25.78;56.89;100297.72;20746403;28;20046;-77
2022/08/24 12:10:52;;;;;;;16.58;7.60;;;;;;;25.86;57.55;100297.75;20714558;28;20074;-75
2022/08/24 12:20:53;;;;;;;12.48;6.35;;;;;;;25.87;56.60;100302.09;20687629;28;20057;-77
2022/08/24 12:30:58;;;;;;;11.25;5.53;;;;;;;25.86;57.06;100305.72;20694978;28;20551;-77
2022/08/24 12:41:14;;;;;;;9.55;5.38;;;;;;;25.83;58.71;100305.19;20692923;28;21886;-76
2022/08/24 12:51:42;;;;;;;11.93;4.72;;;;;;;25.72;57.20;100300.97;20680111;28;20049;-74
2022/08/24 13:02:00;;;;;;;9.40;4.00;;;;;;;25.71;56.58;100299.31;20662953;28;20074;-75
2022/08/24 13:12:40;;;;;;;8.20;4.10;;;;;;;25.66;56.82;100285.63;20682760;28;20050;-75
2022/08/24 13:23:03;;;;;;;6.78;4.03;;;;;;;25.65;57.32;100299.91;20667887;28;20129;-75
2022/08/24 13:33:09;;;;;;;8.13;4.95;;;;;;;25.64;57.62;100299.06;20700221;28;20053;-73
2022/08/24 13:43:29;;;;;;;7.10;4.90;;;;;;;25.65;57.70;100310.50;20662983;28;20054;-74
2022/08/24 13:53:56;;;;;;;11.50;5.22;;;;;;;25.62;58.76;100302.84;20663274;28;24807;-75
2022/08/24 14:04:24;;;;;;;11.50;4.90;;;;;;;25.61;59.52;100303.81;20651367;28;20104;-74
2022/08/24 14:14:37;;;;;;;8.80;5.32;;;;;;;25.63;59.13;100304.50;20644725;28;20806;-74
2022/08/24 14:24:50;;;;;;;10.15;5.93;;;;;;;25.63;58.36;100299.22;20641834;28;20049;-77
2022/08/24 14:35:17;;;;;;;14.05;5.13;;;;;;;25.63;58.88;100307.16;20621268;28;20045;-73
2022/08/24 14:45:41;;;;;;;9.82;4.90;;;;;;;25.65;58.88;100297.25;20603780;28;20169;-73
2022/08/24 14:55:58;;;;;;;8.95;5.00;;;;;;;25.58;59.61;100291.69;20564184;28;20057;-73
2022/08/24 15:06:18;;;;;;;9.68;4.57;;;;;;;25.63;58.81;100293.91;20574970;28;20047;-73
2022/08/24 15:16:21;;;;;;;10.50;5.70;;;;;;;25.67;59.13;100303.22;20564244;28;20050;-71
2022/08/24 15:26:40;;;;;;;;;;;;;;;25.71;58.88;100316.03;20601491;28;20108;-73
2022/08/24 15:36:40;;;;;;;;;;;;;;;25.97;58.21;100312.63;20653746;28;19917;-72
2022/08/24 15:46:44;;;;;;;;;;;;;;;26.10;57.36;100312.28;20646119;28;19956;-73
2022/08/24 15:56:49;;;;;;;;;;;;;;;26.15;56.82;100302.03;20639406;28;19961;-74
2022/08/24 16:06:49;;;;;;;9.30;4.30;;;;;;;26.32;56.90;100283.59;20652137;28;21031;-75
2022/08/24 16:16:50;;;;;;;;;;;;;;;26.38;56.91;100269.69;20615349;28;20012;-74
2022/08/24 16:26:53;;;;;;;;;;;;;;;26.31;58.45;100265.97;20593303;28;19936;-72
2022/08/24 16:36:54;;;;;;;;;;;;;;;26.35;59.57;100269.97;20664997;28;19917;-74
2022/08/24 16:46:54;;;;;;;;;;;;;;;26.25;59.78;100275.38;20641188;28;20586;-74
2022/08/24 16:56:56;;;;;;;;;;;;;;;26.29;59.04;100294.50;20613340;28;20301;-71
2022/08/24 17:06:57;;;;;;;;;;;;;;;26.21;59.26;100296.09;20572467;28;19932;-71
2022/08/24 17:16:57;;;;;;;;;;;;;;;26.10;59.46;100304.31;20615018;28;20024;-71
2022/08/24 17:26:58;;;;;;;;;;;;;;;26.14;58.45;100318.94;20645857;28;19972;-72
2022/08/24 17:37:00;;;;;;;10.93;4.38;;;;;;;26.05;56.20;100322.50;20544426;28;19917;-73
2022/08/24 17:47:02;;;;;;;12.52;4.30;;;;;;;26.02;56.49;100341.34;20596650;28;20049;-70
2022/08/24 17:57:03;;;;;;;12.10;4.25;;;;;;;26.04;56.95;100344.69;20622220;28;20174;-71
2022/08/24 18:07:05;;;;;;;;;;;;;;;25.90;56.99;100348.69;20614553;28;20118;-72
2022/08/24 18:17:07;;;;;;;;;;;;;;;25.80;57.30;100356.72;20583876;28;19926;-71
2022/08/24 18:27:12;;;;;;;;;;;;;;;25.60;57.87;100369.28;20606304;28;19936;-72
2022/08/24 18:37:12;;;;;;;;;;;;;;;25.53;57.94;100370.88;20609428;28;19926;-74
2022/08/24 18:47:12;;;;;;;;;;;;;;;25.53;57.47;100379.63;20649043;28;21633;-72
2022/08/24 18:57:13;;;;;;;;;;;;;;;25.73;58.15;100383.03;20643728;28;20292;-74
2022/08/24 19:07:14;;;;;;;;;;;;;;;25.66;57.63;100389.91;20626550;28;20434;-72
2022/08/24 19:17:15;;;;;;;;;;;;;;;25.65;57.69;100398.84;20630725;28;19922;-72
2022/08/24 19:27:16;;;;;;;;;;;;;;;25.62;57.74;100387.69;20639800;28;19936;-74
2022/08/24 19:37:16;;;;;;;;;;;;;;;25.58;58.15;100381.84;20631711;28;20396;-73
2022/08/24 19:47:17;;;;;;;;;;;;;;;25.37;58.25;100401.47;20644827;28;20540;-73
2022/08/24 19:57:23;;;;;;;;;;;;;;;25.35;58.34;100407.88;20653436;28;19932;-73
2022/08/24 20:07:24;;;;;;;;;;;;;;;25.33;58.71;100404.53;20645087;28;19929;-72
2022/08/24 20:17:24;;;;;;;;;;;;;;;25.24;58.86;100403.59;20663293;28;20442;-73
2022/08/24 20:27:26;;;;;;;;;;;;;;;25.18;59.16;100409.47;20671201;28;19921;-73
2022/08/24 20:37:27;;;;;;;;;;;;;;;25.17;59.70;100410.47;20650042;28;20027;-73
2022/08/24 20:47:27;;;;;;;;;;;;;;;25.10;59.49;100411.03;20612710;28;21684;-73
2022/08/24 20:57:28;;;;;;;;;;;;;;;25.02;59.77;100413.56;20587992;28;20387;-74
2022/08/24 21:07:28;;;;;;;;;;;;;;;24.72;60.52;100414.63;20621152;28;19972;-73
2022/08/24 21:17:29;;;;;;;;;;;;;;;24.54;60.88;100423.22;20660151;28;20123;-73
2022/08/24 21:27:30;;;;;;;;;;;;;;;24.49;61.29;100422.81;20672310;28;20043;-73
2022/08/24 21:37:30;;;;;;;;;;;;;;;24.42;61.51;100430.47;20616654;28;19976;-73
2022/08/24 21:47:31;;;;;;;;;;;;;;;24.45;61.49;100426.75;20566954;28;20328;-74
2022/08/24 21:57:31;;;;;;;;;;;;;;;24.40;61.67;100416.56;20571868;28;19925;-73
2022/08/24 22:07:31;;;;;;;;;;;;;;;24.25;61.93;100417.94;20566154;28;20012;-74
2022/08/24 22:17:31;;;;;;;;;;;;;;;24.08;62.49;100425.59;20636261;28;19956;-74
2022/08/24 22:27:32;;;;;;;;;;;;;;;23.97;62.81;100423.06;20630211;28;19936;-74
2022/08/24 22:37:32;;;;;;;;;;;;;;;23.91;62.91;100418.28;20649825;28;20004;-74
2022/08/24 22:47:34;;;;;;;;;;;;;;;23.82;63.13;100410.19;20609525;28;19952;-74
2022/08/24 22:57:35;;;;;;;;;;;;;;;23.76;63.33;100402.78;20606709;28;19922;-75
2022/08/24 23:07:36;;;;;;;;;;;;;;;23.73;63.29;100389.00;20564915;28;19964;-74
2022/08/24 23:17:36;;;;;;;;;;;;;;;23.78;63.05;100384.19;20564631;28;19972;-74
2022/08/24 23:27:36;;;;;;;;;;;;;;;23.67;63.28;100371.91;20556497;28;19980;-74
2022/08/24 23:37:37;;;;;;;;;;;;;;;23.62;63.22;100367.03;20546094;28;19926;-74
2022/08/24 23:47:37;;;;;;;;;;;;;;;23.61;63.23;100361.88;20544170;28;19925;-72
2022/08/24 23:57:38;;;;;;;;;;;;;;;23.53;63.72;100354.59;20576225;28;19921;-73
